createdAt,value
2019-02-24T00:00:34.134Z,4.80
2019-02-24T00:03:03.718Z,4.90
2019-02-24T00:05:32.633Z,4.90
2019-02-24T00:08:11.386Z,4.90
2019-02-24T00:10:40.286Z,4.90
2019-02-24T00:13:09.214Z,4.90
2019-02-24T00:15:38.723Z,5.00
2019-02-24T00:18:07.624Z,4.90
2019-02-24T00:20:36.481Z,5.00
2019-02-24T00:23:06.704Z,4.90
2019-02-24T00:25:35.976Z,4.90
2019-02-24T00:28:07.338Z,4.90
2019-02-24T00:30:36.204Z,5.00
2019-02-24T00:33:05.397Z,4.90
2019-02-24T00:35:35.129Z,4.90
2019-02-24T00:38:03.955Z,4.90
2019-02-24T00:40:33.162Z,4.90
2019-02-24T00:43:02.051Z,4.90
2019-02-24T00:45:30.941Z,4.90
2019-02-24T00:48:03.709Z,4.90
2019-02-24T00:50:34.988Z,4.90
2019-02-24T00:53:03.825Z,4.90
2019-02-24T00:55:32.788Z,4.80
2019-02-24T00:58:02.087Z,4.80
2019-02-24T01:00:31.096Z,4.80
2019-02-24T01:03:00.191Z,4.70
2019-02-24T01:05:31.014Z,4.70
2019-02-24T01:08:00.181Z,4.70
2019-02-24T01:10:29.081Z,4.70
2019-02-24T01:12:57.975Z,4.70
2019-02-24T01:15:26.883Z,4.60
2019-02-24T01:17:55.850Z,4.60
2019-02-24T01:20:26.547Z,4.50
2019-02-24T01:22:56.433Z,4.50
2019-02-24T01:25:25.498Z,4.50
2019-02-24T01:27:54.414Z,4.40
2019-02-24T01:30:23.552Z,4.30
2019-02-24T01:32:52.796Z,4.30
2019-02-24T01:35:22.289Z,4.30
2019-02-24T01:37:51.113Z,4.20
2019-02-24T01:40:21.577Z,4.10
2019-02-24T01:43:19.535Z,4.00
2019-02-24T01:45:51.513Z,3.90
2019-02-24T01:48:21.185Z,3.90
2019-02-24T01:50:50.316Z,3.80
2019-02-24T01:53:19.161Z,3.70
2019-02-24T01:55:47.967Z,3.60
2019-02-24T01:58:16.949Z,3.60
2019-02-24T02:00:45.865Z,3.50
2019-02-24T02:03:14.783Z,3.50
2019-02-24T02:05:43.936Z,3.50
2019-02-24T02:08:14.065Z,3.40
2019-02-24T02:10:52.709Z,3.40
2019-02-24T02:13:22.657Z,3.40
2019-02-24T02:15:51.587Z,3.50
2019-02-24T02:18:21.839Z,3.40
2019-02-24T02:20:50.827Z,3.40
2019-02-24T02:23:20.155Z,3.40
2019-02-24T02:25:48.995Z,3.30
2019-02-24T02:28:18.130Z,3.30
2019-02-24T02:30:48.562Z,3.30
2019-02-24T02:33:18.366Z,3.30
2019-02-24T02:35:47.530Z,3.30
2019-02-24T02:38:16.419Z,3.30
2019-02-24T02:40:47.098Z,3.30
2019-02-24T02:43:18.263Z,3.40
2019-02-24T02:45:47.559Z,3.30
2019-02-24T02:48:20.793Z,3.30
2019-02-24T02:50:50.255Z,3.20
2019-02-24T02:53:22.491Z,3.10
2019-02-24T02:55:51.451Z,3.10
2019-02-24T02:58:20.605Z,3.10
2019-02-24T03:00:50.122Z,3.00
2019-02-24T03:03:19.039Z,3.00
2019-02-24T03:06:10.266Z,2.90
2019-02-24T03:08:45.472Z,2.90
2019-02-24T03:11:14.565Z,2.80
2019-02-24T03:13:45.046Z,2.80
2019-02-24T03:16:16.149Z,2.80
2019-02-24T03:18:45.121Z,2.80
2019-02-24T03:21:14.106Z,2.80
2019-02-24T03:23:43.178Z,2.80
2019-02-24T03:26:17.523Z,2.80
2019-02-24T03:28:48.684Z,2.80
2019-02-24T03:31:18.751Z,2.80
2019-02-24T03:33:48.405Z,2.90
2019-02-24T03:36:19.602Z,2.90
2019-02-24T03:38:54.972Z,2.90
2019-02-24T03:41:24.393Z,2.90
2019-02-24T03:43:53.343Z,2.90
2019-02-24T03:46:22.507Z,2.90
2019-02-24T03:48:54.375Z,2.90
2019-02-24T03:51:23.336Z,2.80
2019-02-24T03:56:27.099Z,2.80
2019-02-24T03:59:02.204Z,2.70
2019-02-24T04:01:31.428Z,2.60
2019-02-24T04:04:00.292Z,2.60
2019-02-24T04:06:30.777Z,2.50
2019-02-24T04:08:59.769Z,2.50
2019-02-24T04:11:28.637Z,2.40
2019-02-24T04:13:57.970Z,2.40
2019-02-24T04:16:26.882Z,2.30
2019-02-24T04:21:33.201Z,2.30
2019-02-24T04:24:02.203Z,2.30
2019-02-24T04:26:34.169Z,2.30
2019-02-24T04:29:03.427Z,2.40
2019-02-24T04:31:32.261Z,2.40
2019-02-24T04:34:01.198Z,2.50
2019-02-24T04:39:06.893Z,2.70
2019-02-24T04:41:35.882Z,2.70
2019-02-24T04:44:04.805Z,2.80
2019-02-24T04:46:34.876Z,2.80
2019-02-24T04:49:03.914Z,2.90
2019-02-24T04:51:32.805Z,2.90
2019-02-24T04:54:02.838Z,2.90
2019-02-24T04:56:33.353Z,2.90
2019-02-24T04:59:02.343Z,2.90
2019-02-24T05:01:31.790Z,2.90
2019-02-24T05:04:00.626Z,2.90
2019-02-24T05:06:29.514Z,2.90
2019-02-24T05:09:01.501Z,2.90
2019-02-24T05:11:32.055Z,2.90
2019-02-24T05:14:01.243Z,2.90
2019-02-24T05:16:30.381Z,2.90
2019-02-24T05:18:59.297Z,2.90
2019-02-24T05:21:28.201Z,2.90
2019-02-24T05:23:58.421Z,3.00
2019-02-24T05:26:29.096Z,3.00
2019-02-24T05:28:58.373Z,2.90
2019-02-24T05:31:27.591Z,2.90
2019-02-24T05:33:56.536Z,2.90
2019-02-24T05:36:25.378Z,2.90
2019-02-24T05:38:54.598Z,2.90
2019-02-24T05:41:24.298Z,2.90
2019-02-24T05:43:53.216Z,2.90
2019-02-24T05:46:22.413Z,2.90
2019-02-24T05:49:25.812Z,3.00
2019-02-24T05:51:56.017Z,3.00
2019-02-24T05:54:25.782Z,2.90
2019-02-24T05:56:54.621Z,2.90
2019-02-24T05:59:23.786Z,2.90
2019-02-24T06:01:53.200Z,2.90
2019-02-24T06:04:25.129Z,2.90
2019-02-24T06:06:54.291Z,2.90
2019-02-24T06:09:23.946Z,2.80
2019-02-24T06:11:53.535Z,2.80
2019-02-24T06:14:22.377Z,2.80
2019-02-24T06:16:51.867Z,2.70
2019-02-24T06:19:21.138Z,2.70
2019-02-24T06:21:52.044Z,2.70
2019-02-24T06:24:21.763Z,2.70
2019-02-24T06:26:50.795Z,2.70
2019-02-24T06:29:20.423Z,2.70
2019-02-24T06:31:49.474Z,2.70
2019-02-24T06:34:18.350Z,2.70
2019-02-24T06:36:47.331Z,2.80
2019-02-24T06:39:16.584Z,2.80
2019-02-24T06:41:45.501Z,2.80
2019-02-24T06:44:14.450Z,2.80
2019-02-24T06:46:43.755Z,2.80
2019-02-24T06:49:12.942Z,2.90
2019-02-24T06:51:44.060Z,2.90
2019-02-24T06:54:13.341Z,2.90
2019-02-24T06:56:42.513Z,2.90
2019-02-24T06:59:11.498Z,2.90
2019-02-24T07:01:40.563Z,2.90
2019-02-24T07:04:09.751Z,2.90
2019-02-24T07:06:38.690Z,2.90
2019-02-24T07:09:08.315Z,2.90
2019-02-24T07:14:12.100Z,2.90
2019-02-24T07:16:41.327Z,3.00
2019-02-24T07:19:10.295Z,2.90
2019-02-24T07:25:14.377Z,3.00
2019-02-24T07:27:43.241Z,3.00
2019-02-24T07:30:12.339Z,3.00
2019-02-24T07:32:41.306Z,3.00
2019-02-24T07:35:10.502Z,3.10
2019-02-24T07:37:39.863Z,3.20
2019-02-24T07:40:08.849Z,3.20
2019-02-24T07:42:37.904Z,3.20
2019-02-24T07:45:07.469Z,3.30
2019-02-24T07:47:36.297Z,3.30
2019-02-24T07:50:09.241Z,3.40
2019-02-24T07:52:38.079Z,3.50
2019-02-24T07:55:07.343Z,3.50
2019-02-24T07:57:36.206Z,3.60
2019-02-24T08:00:05.436Z,3.60
2019-02-24T08:02:34.623Z,3.70
2019-02-24T08:05:03.711Z,3.70
2019-02-24T08:07:33.702Z,3.80
2019-02-24T08:10:03.064Z,3.80
2019-02-24T08:12:32.301Z,3.90
2019-02-24T08:15:03.867Z,3.90
2019-02-24T08:17:32.733Z,4.00
2019-02-24T08:22:37.008Z,4.10
2019-02-24T08:28:40.986Z,4.10
2019-02-24T08:31:10.806Z,4.20
2019-02-24T08:33:40.024Z,4.30
2019-02-24T08:36:12.862Z,4.30
2019-02-24T08:38:42.822Z,4.40
2019-02-24T08:41:14.627Z,4.40
2019-02-24T08:43:44.370Z,4.50
2019-02-24T08:46:13.765Z,4.50
2019-02-24T08:48:46.242Z,4.60
2019-02-24T08:52:00.644Z,4.70
2019-02-24T08:54:29.641Z,4.70
2019-02-24T08:56:59.199Z,4.80
2019-02-24T08:59:28.241Z,4.90
2019-02-24T09:01:57.540Z,4.90
2019-02-24T09:04:26.763Z,5.00
2019-02-24T09:06:56.468Z,5.10
2019-02-24T09:09:37.292Z,5.10
2019-02-24T09:12:06.258Z,5.20
2019-02-24T09:14:35.259Z,5.30
2019-02-24T09:17:04.261Z,5.40
2019-02-24T09:19:33.177Z,5.40
2019-02-24T09:24:48.402Z,5.60
2019-02-24T09:27:17.633Z,5.70
2019-02-24T09:29:46.724Z,5.70
2019-02-24T09:32:15.867Z,5.80
2019-02-24T09:34:44.978Z,5.90
2019-02-24T09:37:14.089Z,6.00
2019-02-24T09:39:43.031Z,6.00
2019-02-24T09:42:11.991Z,6.00
2019-02-24T09:44:40.911Z,6.10
2019-02-24T09:47:09.792Z,6.20
2019-02-24T09:49:39.036Z,6.20
2019-02-24T09:52:08.022Z,6.30
2019-02-24T09:54:36.959Z,6.40
2019-02-24T09:57:06.686Z,6.40
2019-02-24T09:59:38.812Z,6.50
2019-02-24T10:02:08.542Z,6.50
2019-02-24T10:04:41.186Z,6.60
2019-02-24T10:07:10.314Z,6.60
2019-02-24T10:09:40.580Z,6.70
2019-02-24T10:12:16.236Z,6.70
2019-02-24T10:14:45.259Z,6.70
2019-02-24T10:17:14.513Z,6.80
2019-02-24T10:19:43.554Z,6.90
2019-02-24T10:22:15.777Z,6.90
2019-02-24T10:24:45.124Z,7.00
2019-02-24T10:27:14.504Z,7.10
2019-02-24T10:29:43.450Z,7.20
2019-02-24T10:32:13.227Z,7.20
2019-02-24T10:37:19.839Z,7.40
2019-02-24T10:39:50.055Z,7.50
2019-02-24T10:42:19.114Z,7.50
2019-02-24T10:44:48.734Z,7.60
2019-02-24T10:47:17.748Z,7.70
2019-02-24T10:49:46.963Z,7.70
2019-02-24T10:52:18.183Z,7.80
2019-02-24T10:54:47.786Z,7.90
2019-02-24T10:57:17.082Z,8.00
2019-02-24T10:59:46.447Z,8.10
2019-02-24T11:02:19.095Z,8.20
2019-02-24T11:04:48.967Z,8.30
2019-02-24T11:07:18.188Z,8.40
2019-02-24T11:09:47.195Z,8.50
2019-02-24T11:12:16.202Z,8.60
2019-02-24T11:14:45.880Z,8.70
2019-02-24T11:17:15.110Z,8.80
2019-02-24T11:19:44.286Z,8.80
2019-02-24T11:25:41.790Z,9.00
2019-02-24T11:28:16.982Z,9.00
2019-02-24T11:30:46.005Z,9.10
2019-02-24T11:33:15.268Z,9.20
2019-02-24T11:35:44.656Z,9.30
2019-02-24T11:38:16.926Z,9.30
2019-02-24T11:40:49.137Z,9.50
2019-02-24T11:43:18.105Z,9.50
2019-02-24T11:45:47.073Z,9.60
2019-02-24T11:48:16.830Z,9.70
2019-02-24T11:50:50.264Z,9.80
2019-02-24T11:53:19.301Z,10.00
2019-02-24T11:55:48.243Z,10.10
2019-02-24T11:58:17.441Z,10.20
2019-02-24T12:00:47.810Z,10.30
2019-02-24T12:03:16.812Z,10.40
2019-02-24T12:05:45.826Z,10.50
2019-02-24T12:08:15.956Z,10.60
2019-02-24T12:10:44.938Z,10.70
2019-02-24T12:13:17.056Z,10.80
2019-02-24T12:15:46.420Z,10.90
2019-02-24T12:18:15.920Z,10.90
2019-02-24T12:20:48.050Z,11.00
2019-02-24T12:23:16.914Z,11.10
2019-02-24T12:25:46.088Z,11.10
2019-02-24T12:28:15.031Z,11.20
2019-02-24T12:30:44.051Z,11.30
2019-02-24T12:33:13.116Z,11.40
2019-02-24T12:35:42.606Z,11.50
2019-02-24T12:38:12.107Z,11.60
2019-02-24T12:40:41.167Z,11.70
2019-02-24T12:43:14.160Z,11.70
2019-02-24T12:45:45.950Z,11.80
2019-02-24T12:48:14.823Z,11.80
2019-02-24T12:54:24.909Z,11.90
2019-02-24T12:56:54.267Z,11.90
2019-02-24T12:59:23.453Z,11.90
2019-02-24T13:01:53.255Z,12.00
2019-02-24T13:04:22.795Z,12.10
2019-02-24T13:06:52.379Z,12.10
2019-02-24T13:09:21.931Z,12.20
2019-02-24T13:11:51.504Z,12.20
2019-02-24T13:14:21.251Z,12.40
2019-02-24T13:16:51.073Z,12.50
2019-02-24T13:19:20.092Z,12.70
2019-02-24T13:21:49.778Z,12.80
2019-02-24T13:24:18.818Z,13.00
2019-02-24T13:26:47.802Z,13.10
2019-02-24T13:29:16.811Z,13.20
2019-02-24T13:31:46.296Z,13.30
2019-02-24T13:34:22.145Z,13.30
2019-02-24T13:36:51.153Z,13.30
2019-02-24T13:39:24.195Z,13.40
2019-02-24T13:41:53.839Z,13.40
2019-02-24T13:44:23.673Z,13.40
2019-02-24T13:46:52.692Z,13.50
2019-02-24T13:49:21.724Z,13.60
2019-02-24T13:51:54.205Z,13.70
2019-02-24T13:54:23.151Z,13.80
2019-02-24T13:56:52.751Z,13.80
2019-02-24T13:59:21.656Z,13.90
2019-02-24T14:01:51.472Z,14.00
2019-02-24T14:04:20.990Z,14.10
2019-02-24T14:06:50.803Z,14.10
2019-02-24T14:09:19.889Z,14.20
2019-02-24T14:11:50.385Z,14.10
2019-02-24T14:14:23.779Z,14.10
2019-02-24T14:16:54.325Z,14.00
2019-02-24T14:19:24.274Z,14.00
2019-02-24T14:21:53.789Z,14.00
2019-02-24T14:24:23.449Z,14.00
2019-02-24T14:26:53.299Z,13.90
2019-02-24T14:29:22.738Z,13.90
2019-02-24T14:31:52.069Z,14.00
2019-02-24T14:34:21.612Z,14.00
2019-02-24T14:36:51.513Z,14.00
2019-02-24T14:39:22.186Z,14.10
2019-02-24T14:41:54.492Z,14.10
2019-02-24T14:44:24.196Z,14.20
2019-02-24T14:46:53.990Z,14.40
2019-02-24T14:49:24.029Z,14.40
2019-02-24T14:54:28.872Z,14.60
2019-02-24T14:56:58.408Z,14.70
2019-02-24T14:59:28.353Z,14.70
2019-02-24T15:01:57.755Z,14.80
2019-02-24T15:04:30.862Z,14.80
2019-02-24T15:07:00.449Z,14.80
2019-02-24T15:09:30.050Z,14.90
2019-02-24T15:12:07.170Z,14.80
2019-02-24T15:14:37.510Z,15.00
2019-02-24T15:17:07.187Z,15.10
2019-02-24T15:19:41.693Z,15.10
2019-02-24T15:22:11.730Z,15.20
2019-02-24T15:24:44.833Z,15.20
2019-02-24T15:27:14.813Z,15.30
2019-02-24T15:29:44.746Z,15.30
2019-02-24T15:32:14.769Z,15.30
2019-02-24T15:34:45.274Z,15.30
2019-02-24T15:37:22.894Z,15.20
2019-02-24T15:39:52.653Z,15.10
2019-02-24T15:42:25.417Z,15.10
2019-02-24T15:44:55.642Z,15.20
2019-02-24T15:47:26.435Z,15.20
2019-02-24T15:50:00.485Z,15.10
2019-02-24T15:52:30.928Z,15.10
2019-02-24T15:55:00.651Z,15.00
2019-02-24T15:57:33.626Z,14.80
2019-02-24T16:00:04.481Z,14.70
2019-02-24T16:05:09.622Z,15.00
2019-02-24T16:07:39.520Z,14.90
2019-02-24T16:10:11.371Z,14.90
2019-02-24T16:12:44.645Z,14.80
2019-02-24T16:15:14.999Z,14.80
2019-02-24T16:17:47.233Z,14.70
2019-02-24T16:22:54.670Z,14.50
2019-02-24T16:25:27.694Z,14.40
2019-02-24T16:27:57.443Z,14.30
2019-02-24T16:30:26.828Z,14.00
2019-02-24T16:32:55.864Z,13.80
2019-02-24T16:35:25.761Z,13.70
2019-02-24T16:37:56.349Z,13.60
2019-02-24T16:43:00.922Z,13.40
2019-02-24T16:45:30.566Z,13.20
2019-02-24T16:47:59.832Z,13.10
2019-02-24T16:50:29.367Z,12.90
2019-02-24T16:52:58.706Z,12.80
2019-02-24T16:55:27.813Z,12.60
2019-02-24T16:57:57.774Z,12.60
2019-02-24T17:00:28.125Z,12.40
2019-02-24T17:02:57.455Z,12.30
2019-02-24T17:05:26.450Z,12.10
2019-02-24T17:07:55.730Z,11.90
2019-02-24T17:10:25.930Z,11.80
2019-02-24T17:12:55.456Z,11.60
2019-02-24T17:15:24.443Z,11.50
2019-02-24T17:17:53.852Z,11.40
2019-02-24T17:20:23.179Z,11.20
2019-02-24T17:22:52.522Z,11.00
2019-02-24T17:25:21.962Z,10.90
2019-02-24T17:27:50.857Z,10.70
2019-02-24T17:30:20.033Z,10.60
2019-02-24T17:32:49.280Z,10.40
2019-02-24T17:35:21.370Z,10.30
2019-02-24T17:37:50.864Z,10.20
2019-02-24T17:40:22.018Z,10.10
2019-02-24T17:42:59.044Z,9.90
2019-02-24T17:45:28.918Z,9.80
2019-02-24T17:47:59.047Z,9.70
2019-02-24T17:50:28.108Z,9.60
2019-02-24T17:52:57.043Z,9.40
2019-02-24T17:55:26.099Z,9.30
2019-02-24T17:57:55.189Z,9.20
2019-02-24T18:00:28.128Z,9.00
2019-02-24T18:02:57.223Z,9.00
2019-02-24T18:05:27.605Z,8.80
2019-02-24T18:07:59.701Z,8.80
2019-02-24T18:10:31.715Z,8.70
2019-02-24T18:13:00.615Z,8.60
2019-02-24T18:15:29.829Z,8.50
2019-02-24T18:17:58.815Z,8.40
2019-02-24T18:20:28.179Z,8.30
2019-02-24T18:22:58.635Z,8.30
2019-02-24T18:25:28.913Z,8.20
2019-02-24T18:27:58.115Z,8.10
2019-02-24T18:30:27.269Z,8.00
2019-02-24T18:32:58.845Z,8.00
2019-02-24T18:35:34.890Z,7.90
2019-02-24T18:38:04.195Z,7.80
2019-02-24T18:40:34.047Z,7.70
2019-02-24T18:43:03.470Z,7.60
2019-02-24T18:45:32.956Z,7.60
2019-02-24T18:48:01.972Z,7.50
2019-02-24T18:50:31.045Z,7.40
2019-02-24T18:53:00.495Z,7.30
2019-02-24T18:55:29.496Z,7.20
2019-02-24T18:58:05.344Z,7.20
2019-02-24T19:00:34.426Z,7.10
2019-02-24T19:03:03.466Z,7.00
2019-02-24T19:05:32.808Z,7.00
2019-02-24T19:08:02.951Z,6.90
2019-02-24T19:10:32.001Z,6.80
2019-02-24T19:13:01.295Z,6.80
2019-02-24T19:15:32.414Z,6.80
2019-02-24T19:18:01.567Z,6.80
2019-02-24T19:20:31.751Z,6.80
2019-02-24T19:23:02.787Z,6.80
2019-02-24T19:25:32.239Z,6.80
2019-02-24T19:28:01.609Z,6.70
2019-02-24T19:30:33.984Z,6.70
2019-02-24T19:33:03.298Z,6.60
2019-02-24T19:35:32.739Z,6.60
2019-02-24T19:38:12.411Z,6.50
2019-02-24T19:40:41.495Z,6.50
2019-02-24T19:43:10.652Z,6.40
2019-02-24T19:45:40.454Z,6.40
2019-02-24T19:48:09.521Z,6.30
2019-02-24T19:50:39.926Z,6.30
2019-02-24T19:53:09.660Z,6.20
2019-02-24T19:55:42.028Z,6.20
2019-02-24T19:58:11.811Z,6.10
2019-02-24T20:00:42.379Z,6.10
2019-02-24T20:03:11.688Z,6.00
2019-02-24T20:05:40.688Z,6.00
2019-02-24T20:08:10.042Z,5.90
2019-02-24T20:10:39.321Z,5.90
2019-02-24T20:13:08.434Z,5.80
2019-02-24T20:15:37.889Z,5.80
2019-02-24T20:18:07.242Z,5.80
2019-02-24T20:20:36.744Z,5.70
2019-02-24T20:23:05.873Z,5.70
2019-02-24T20:25:35.281Z,5.60
2019-02-24T20:28:04.789Z,5.60
2019-02-24T20:30:33.868Z,5.50
2019-02-24T20:33:03.000Z,5.50
2019-02-24T20:35:32.054Z,5.40
2019-02-24T20:38:07.687Z,5.40
2019-02-24T20:40:36.662Z,5.30
2019-02-24T20:43:05.898Z,5.30
2019-02-24T20:45:35.161Z,5.20
2019-02-24T20:48:04.757Z,5.20
2019-02-24T20:50:33.815Z,5.20
2019-02-24T20:55:41.014Z,5.10
2019-02-24T20:58:12.213Z,5.20
2019-02-24T21:00:41.762Z,5.20
2019-02-24T21:03:10.974Z,5.10
2019-02-24T21:05:43.390Z,5.10
2019-02-24T21:08:14.042Z,5.00
2019-02-24T21:10:43.303Z,5.00
2019-02-24T21:13:12.545Z,5.00
2019-02-24T21:15:41.940Z,5.00
2019-02-24T21:18:11.047Z,5.00
2019-02-24T21:20:40.117Z,5.00
2019-02-24T21:23:09.979Z,5.00
2019-02-24T21:25:39.595Z,5.00
2019-02-24T21:28:08.943Z,5.00
2019-02-24T21:30:38.055Z,5.00
2019-02-24T21:33:10.851Z,5.00
2019-02-24T21:35:43.860Z,5.00
2019-02-24T21:38:13.438Z,5.00
2019-02-24T21:40:42.562Z,5.00
2019-02-24T21:43:12.277Z,4.90
2019-02-24T21:45:42.247Z,4.90
2019-02-24T21:48:12.061Z,4.80
2019-02-24T21:50:43.130Z,4.80
2019-02-24T21:53:12.809Z,4.80
2019-02-24T21:55:42.269Z,4.80
2019-02-24T21:58:11.416Z,4.80
2019-02-24T22:00:40.779Z,4.70
2019-02-24T22:03:10.469Z,4.70
2019-02-24T22:05:39.607Z,4.60
2019-02-24T22:08:08.843Z,4.60
2019-02-24T22:10:38.224Z,4.50
2019-02-24T22:13:10.124Z,4.60
2019-02-24T22:15:40.709Z,4.50
2019-02-24T22:18:11.123Z,4.50
2019-02-24T22:20:40.068Z,4.50
2019-02-24T22:23:09.380Z,4.50
2019-02-24T22:25:38.653Z,4.50
2019-02-24T22:28:07.740Z,4.40
2019-02-24T22:30:36.686Z,4.40
2019-02-24T22:33:06.441Z,4.40
2019-02-24T22:35:35.636Z,4.40
2019-02-24T22:38:04.676Z,4.40
2019-02-24T22:40:37.420Z,4.40
2019-02-24T22:43:06.495Z,4.40
2019-02-24T22:45:35.332Z,4.40
2019-02-24T22:48:05.908Z,4.30
2019-02-24T22:50:35.189Z,4.40
2019-02-24T22:53:04.112Z,4.40
2019-02-24T22:55:33.299Z,4.40
2019-02-24T22:58:02.310Z,4.40
2019-02-24T23:00:57.891Z,4.40
2019-02-24T23:03:29.430Z,4.50
2019-02-24T23:05:59.776Z,4.50
2019-02-24T23:08:28.754Z,4.50
2019-02-24T23:10:57.974Z,4.40
2019-02-24T23:13:26.932Z,4.40
2019-02-24T23:15:56.785Z,4.40
2019-02-24T23:18:25.789Z,4.30
2019-02-24T23:21:50.662Z,4.20
2019-02-24T23:24:19.894Z,4.20
2019-02-24T23:26:52.158Z,4.20
2019-02-24T23:29:21.066Z,4.10
2019-02-24T23:31:50.066Z,4.10
2019-02-24T23:34:19.343Z,4.10
2019-02-24T23:36:48.263Z,4.00
2019-02-24T23:39:19.641Z,3.90
2019-02-24T23:41:48.832Z,3.90
2019-02-24T23:44:18.291Z,3.90
2019-02-24T23:46:47.229Z,3.80
2019-02-24T23:49:16.546Z,3.80
2019-02-24T23:51:45.869Z,3.80
2019-02-24T23:54:15.122Z,3.80
2019-02-24T23:56:44.059Z,3.80
2019-02-24T23:59:13.310Z,3.70
